Stad Amsterdam — PECA — position and weather

sailwx.info

Track history (hours):
 
Tides and Currents Weather Stations Pressure Air Temp Water Temp Dewpoint Dewpoint Depression Visibility Wind Speed Wind Dir Waves Ship Positions

Stad Amsterdam (Netherlands)

Ship's website: http://www.stadamsterdam.com/content/home/index.xml

Last reported at 2019-Jul-23 12:00 UTC. Time now 2019-Jul-23 22:01 UTC.
Position N 39°30' E 018°12'.

Length 76 m; beam 10 m.

Type: Sailing vessel. MMSI: 246494000.

Wind from 330 at 17 knots

Barometer 1014.5 mb
Air temperature 28.4 ° C
Visibility: greater than 10.8 NM
Dewpoint 23.9 ° C
Water temperature 26.7 ° C

Date/timePositionNaut miles runAvg speedWind from/ knotsBaromVisibWave heightAir tempDewpointWater temp
2019-Jul-23 12:00N 39°30' E 018°12'85 7.1 330 / 171014.510.8 28.423.926.7
2019-Jul-23 00:00N 40°54' E 018°30'30 5.0 330 / 171016.5 5.4 25.523.425.6
2019-Jul-22 18:00N 41°18' E 018°06'30 4.9 350 / 131017.627.0 26.224.626.0
2019-Jul-22 12:00N 41°30' E 017°30'58 4.8 320 / 101019.410.8 26.423.427.1
2019-Jul-22 00:00N 42°12' E 016°36'64 6.7 340 / 41019.510.8 30.419.825.9
2019-Jul-21 14:27N 43°07' E 015°53'4 7.7
2019-Jul-21 13:57N 43°10' E 015°49'4 7.7
2019-Jul-21 13:30N 43°12' E 015°46'13 8.6
2019-Jul-21 12:00N 43°18' E 015°30'511.5 230 / 51020.510.8 30.423.328.0
2019-Jul-21 11:31N 43°23' E 015°32'1 7.4
2019-Jul-21 11:21N 43°24' E 015°30'8 7.5
2019-Jul-21 10:15N 43°30' E 015°23'3 7.7
2019-Jul-21 09:53N 43°32' E 015°20'10 7.7
2019-Jul-21 08:36N 43°40' E 015°11'0 1.7
2019-Jul-21 08:23N 43°40' E 015°11'0 0.2
2019-Jul-21 07:53N 43°40' E 015°11'0 0.2
2019-Jul-21 07:30N 43°40' E 015°11'3 5.5
2019-Jul-21 07:00N 43°42' E 015°08'4 7.3
2019-Jul-21 06:30N 43°44' E 015°04'4 7.3
2019-Jul-21 06:00N 43°47' E 015°01'4 7.2
2019-Jul-21 05:30N 43°49' E 014°57'4 7.3
2019-Jul-21 05:00N 43°52' E 014°53'4 7.2
2019-Jul-21 04:30N 43°54' E 014°49'4 7.3
2019-Jul-21 04:00N 43°57' E 014°46'4 7.5
2019-Jul-21 03:29N 43°59' E 014°42'4 7.5
2019-Jul-21 03:00N 44°01' E 014°38'4 7.4
2019-Jul-21 02:30N 44°04' E 014°34'4 7.2
2019-Jul-21 02:00N 44°07' E 014°31'4 7.4
2019-Jul-21 01:30N 44°10' E 014°28'4 7.4
2019-Jul-21 01:00N 44°12' E 014°24'4 7.5
2019-Jul-21 00:30N 44°15' E 014°21'4 7.5
2019-Jul-21 00:00N 44°18' E 014°17'4 7.3
2019-Jul-20 23:30N 44°21' E 014°14'4 7.5
2019-Jul-20 23:00N 44°23' E 014°10'4 7.6
2019-Jul-20 22:30N 44°26' E 014°06'4 7.4
2019-Jul-20 22:00N 44°28' E 014°03'4 7.2
2019-Jul-20 21:30N 44°31' E 013°59'4 7.5
2019-Jul-20 21:00N 44°34' E 013°56'4 7.5
2019-Jul-20 20:30N 44°37' E 013°52'4 7.7
2019-Jul-20 20:00N 44°40' E 013°49'4 7.6
2019-Jul-20 19:30N 44°43' E 013°45'3 6.9
2019-Jul-20 19:00N 44°45' E 013°42'3 6.6
2019-Jul-20 18:30N 44°48' E 013°39'3 6.6
2019-Jul-20 18:00N 44°50' E 013°36'3 6.7
2019-Jul-20 17:30N 44°53' E 013°33'3 6.8
2019-Jul-20 17:00N 44°55' E 013°29'3 6.9
2019-Jul-20 16:30N 44°57' E 013°26'3 7.0
2019-Jul-20 16:00N 44°60' E 013°22'4 7.2
2019-Jul-20 15:30N 45°01' E 013°17'3 6.9
2019-Jul-20 15:00N 45°02' E 013°13'4 7.0
2019-Jul-20 14:30N 45°04' E 013°09'3 6.1
2019-Jul-20 14:00N 45°06' E 013°05'3 6.4
2019-Jul-20 13:30N 45°07' E 013°01'3 6.3
2019-Jul-20 13:00N 45°09' E 012°57'3 6.1
2019-Jul-20 12:30N 45°11' E 012°54'3 6.2
2019-Jul-20 12:00N 45°13' E 012°51'3 6.4
2019-Jul-20 11:30N 45°15' E 012°48'3 6.4
2019-Jul-20 11:00N 45°17' E 012°44'3 6.0
2019-Jul-20 10:30N 45°19' E 012°41'3 6.0
2019-Jul-20 10:00N 45°21' E 012°37'3 6.1
2019-Jul-20 09:30N 45°23' E 012°34'3 5.8
2019-Jul-20 09:00N 45°24' E 012°30'2 2.8
2019-Jul-20 08:26N 45°25' E 012°28'0 0.0
2019-Jul-20 07:56N 45°25' E 012°28'0 0.0
2019-Jul-20 07:26N 45°25' E 012°29'0 0.0
2019-Jul-20 06:59N 45°25' E 012°28'0 0.0
2019-Jul-20 06:20N 45°25' E 012°29'0 0.0
2019-Jul-20 05:56N 45°25' E 012°28'0 0.0
2019-Jul-20 05:29N 45°25' E 012°28'0 0.0
2019-Jul-20 04:59N 45°25' E 012°28'0 0.0
2019-Jul-20 04:29N 45°25' E 012°28'0 0.0
2019-Jul-20 03:53N 45°25' E 012°29'0 0.0
2019-Jul-20 03:29N 45°25' E 012°28'0 0.0
2019-Jul-20 02:59N 45°25' E 012°28'0 0.0
2019-Jul-20 02:29N 45°25' E 012°28'0 0.0
2019-Jul-20 01:59N 45°25' E 012°28'0 0.0
2019-Jul-20 01:29N 45°25' E 012°28'0 0.0
2019-Jul-20 00:59N 45°25' E 012°28'0 0.0
2019-Jul-20 00:29N 45°25' E 012°29'0 0.0
2019-Jul-19 23:59N 45°25' E 012°29'0 0.0
2019-Jul-19 23:29N 45°25' E 012°29'0 0.0
2019-Jul-19 22:59N 45°25' E 012°29'0 0.0
2019-Jul-19 22:20N 45°25' E 012°29'1 1.9
2019-Jul-19 22:00N 45°25' E 012°28'3 6.7
2019-Jul-19 21:31N 45°26' E 012°23'3 5.1
2019-Jul-19 21:00N 45°26' E 012°20'1 1.9
2019-Jul-19 20:29N 45°26' E 012°18'0 0.0
2019-Jul-19 19:38N 45°26' E 012°18'0 0.0
2019-Jul-19 19:17N 45°26' E 012°18'0 0.0
2019-Jul-19 18:59N 45°26' E 012°18'0 0.0
2019-Jul-19 18:26N 45°26' E 012°18'0 0.0
2019-Jul-19 17:59N 45°26' E 012°18'0 0.0
2019-Jul-19 17:26N 45°26' E 012°18'0 0.0
2019-Jul-19 16:56N 45°26' E 012°18'0 0.0
2019-Jul-19 16:29N 45°26' E 012°18'0 0.0
2019-Jul-19 15:59N 45°26' E 012°18'0 0.0
2019-Jul-19 14:59N 45°26' E 012°18'0 0.0
2019-Jul-19 13:38N 45°26' E 012°18'0 0.0
2019-Jul-19 13:26N 45°26' E 012°18'0 0.0
2019-Jul-19 12:53N 45°26' E 012°18'0 0.0
2019-Jul-19 12:26N 45°26' E 012°18'0 0.0
2019-Jul-19 11:50N 45°26' E 012°18'0 0.0
2019-Jul-19 11:20N 45°26' E 012°18'0 0.0
2019-Jul-19 10:38N 45°26' E 012°18'0 0.0
2019-Jul-19 10:26N 45°26' E 012°18'0 0.0
2019-Jul-19 09:56N 45°26' E 012°18'0 0.0
2019-Jul-19 09:26N 45°26' E 012°18'0 0.0
2019-Jul-19 08:56N 45°26' E 012°18'0 0.0
2019-Jul-19 08:26N 45°26' E 012°18'0 0.0
2019-Jul-19 07:56N 45°26' E 012°18'0 0.0
2019-Jul-19 07:14N 45°26' E 012°18'0 0.0
2019-Jul-19 06:56N 45°26' E 012°18'0 0.0
2019-Jul-19 06:08N 45°26' E 012°18'0 0.0
2019-Jul-19 05:56N 45°26' E 012°18'0 0.0
2019-Jul-19 05:26N 45°26' E 012°18'0 0.0
2019-Jul-19 04:29N 45°26' E 012°18'0 0.0
2019-Jul-19 03:38N 45°26' E 012°18'0 0.0
2019-Jul-19 03:20N 45°26' E 012°18'0 0.0
2019-Jul-19 02:47N 45°26' E 012°18'0 0.0
2019-Jul-19 02:05N 45°26' E 012°18'0 0.0
2019-Jul-19 01:29N 45°26' E 012°18'0 0.0
2019-Jul-19 00:53N 45°26' E 012°18'0 0.0
2019-Jul-18 23:53N 45°26' E 012°18'0 0.0
2019-Jul-18 23:29N 45°26' E 012°18'0 0.0
2019-Jul-18 22:59N 45°26' E 012°18'0 0.0
2019-Jul-18 22:23N 45°26' E 012°18'0 0.0
2019-Jul-18 21:38N 45°26' E 012°18'0 0.0
2019-Jul-18 21:29N 45°26' E 012°18'0 0.0
2019-Jul-18 20:47N 45°26' E 012°18'0 0.0
2019-Jul-18 18:26N 45°26' E 012°18'0 0.0
2019-Jul-18 15:56N 45°26' E 012°18'0 0.0
2019-Jul-18 15:23N 45°26' E 012°18'0 0.0
2019-Jul-18 14:50N 45°26' E 012°18'0 0.0
2019-Jul-18 14:29N 45°26' E 012°18'0 0.0
2019-Jul-18 13:53N 45°26' E 012°18'0 0.0
2019-Jul-18 13:23N 45°26' E 012°18'0 0.0
2019-Jul-18 12:44N 45°26' E 012°18'0 0.0
2019-Jul-18 12:26N 45°26' E 012°18'0 0.0
2019-Jul-18 11:56N 45°26' E 012°18'0 0.0
2019-Jul-18 11:26N 45°26' E 012°18'0 0.0
2019-Jul-18 10:56N 45°26' E 012°18'0 0.0
2019-Jul-18 06:17N 45°26' E 012°18'0 0.0
2019-Jul-18 05:26N 45°26' E 012°18'0 0.0
2019-Jul-18 04:26N 45°26' E 012°18'0 0.0
2019-Jul-18 03:56N 45°26' E 012°18'0 0.0
2019-Jul-18 03:08N 45°26' E 012°18'0 0.0
2019-Jul-18 00:14N 45°26' E 012°18'0 0.0
2019-Jul-17 22:56N 45°26' E 012°18'0 0.0
2019-Jul-17 21:59N 45°26' E 012°18'0 0.0
2019-Jul-17 21:29N 45°26' E 012°18'0 0.0
2019-Jul-17 20:35N 45°26' E 012°18'0 0.0
2019-Jul-17 19:35N 45°26' E 012°18'0 0.0
2019-Jul-17 19:23N 45°26' E 012°18'0 0.0
2019-Jul-17 18:59N 45°26' E 012°18'0 0.0
2019-Jul-17 18:11N 45°26' E 012°18'0 0.0
2019-Jul-17 17:56N 45°26' E 012°18'0 0.0
2019-Jul-17 17:29N 45°26' E 012°18'0 0.0
2019-Jul-17 16:47N 45°26' E 012°18'0 0.0
2019-Jul-17 16:29N 45°26' E 012°18'0 0.0
2019-Jul-17 15:53N 45°26' E 012°18'0 0.0
2019-Jul-17 15:29N 45°26' E 012°18'0 0.0
2019-Jul-17 14:53N 45°26' E 012°18'0 0.0
2019-Jul-17 13:59N 45°26' E 012°18'0 0.0
2019-Jul-17 13:16N 45°26' E 012°18'1 2.4
2019-Jul-17 13:00N 45°26' E 012°19'2 4.4
2019-Jul-17 12:30N 45°25' E 012°22'3 6.1
2019-Jul-17 12:00N 45°25' E 012°27'2 4.6
2019-Jul-17 11:30N 45°25' E 012°30'1 1.7
2019-Jul-17 10:47N 45°26' E 012°29'0 0.0
2019-Jul-17 10:23N 45°26' E 012°29'0 0.2
2019-Jul-17 10:00N 45°26' E 012°29'3 5.3
2019-Jul-17 09:30N 45°26' E 012°25'2 4.5
2019-Jul-17 09:00N 45°25' E 012°22'2 4.4
2019-Jul-17 08:30N 45°26' E 012°19'0 0.4
2019-Jul-17 07:16N 45°26' E 012°18'0 0.0
2019-Jul-17 06:28N 45°26' E 012°18'0 0.0
2019-Jul-17 05:46N 45°26' E 012°18'0 0.0
2019-Jul-17 05:10N 45°26' E 012°18'0 0.0
2019-Jul-17 04:58N 45°26' E 012°18'0 0.0
2019-Jul-17 04:28N 45°26' E 012°18'0 0.0
2019-Jul-17 03:55N 45°26' E 012°18'0 0.0
2019-Jul-17 03:28N 45°26' E 012°18'0 0.0
2019-Jul-17 02:58N 45°26' E 012°18'0 0.0
2019-Jul-17 01:31N 45°26' E 012°18'0 0.1
2019-Jul-17 01:25N 45°26' E 012°18'0 0.0
2019-Jul-17 00:58N 45°26' E 012°18'0 0.0
2019-Jul-17 00:25N 45°26' E 012°18'0 0.0
2019-Jul-16 23:28N 45°26' E 012°18'0 0.0
2019-Jul-16 22:58N 45°26' E 012°18'0 0.0
2019-Jul-16 22:22N 45°26' E 012°18'0 0.0
2019-Jul-16 21:07N 45°26' E 012°18'0 0.0
2019-Jul-16 20:58N 45°26' E 012°18'0 0.0
2019-Jul-16 20:28N 45°26' E 012°18'0 0.0
2019-Jul-16 18:25N 45°26' E 012°18'0 0.0
2019-Jul-16 17:52N 45°26' E 012°18'0 0.0
2019-Jul-16 17:22N 45°26' E 012°18'0 0.0
2019-Jul-16 16:58N 45°26' E 012°18'0 0.0
2019-Jul-16 16:28N 45°26' E 012°18'0 0.0
2019-Jul-16 15:46N 45°26' E 012°18'0 0.0
2019-Jul-16 15:28N 45°26' E 012°18'0 0.0
2019-Jul-16 13:34N 45°26' E 012°18'0 0.0
2019-Jul-16 13:29N 45°26' E 012°18'1 2.6
2019-Jul-16 13:00N 45°26' E 012°20'2 3.9
2019-Jul-16 12:30N 45°26' E 012°23'3 5.5
2019-Jul-16 12:00N 45°25' E 012°27'2 4.7
2019-Jul-16 11:30N 45°25' E 012°30'1 2.6
2019-Jul-16 10:59N 45°26' E 012°29'0 0.0
2019-Jul-16 10:29N 45°26' E 012°29'0 0.0
2019-Jul-16 10:00N 45°26' E 012°29'2 4.1
2019-Jul-16 09:30N 45°25' E 012°26'2 4.6
2019-Jul-16 09:00N 45°25' E 012°22'2 4.3
2019-Jul-16 08:30N 45°26' E 012°19'1 1.1
2019-Jul-16 07:47N 45°26' E 012°18'0 0.0
2019-Jul-16 07:05N 45°26' E 012°18'0 0.0
2019-Jul-16 06:17N 45°26' E 012°18'0 0.0
2019-Jul-16 05:38N 45°26' E 012°18'0 0.0
2019-Jul-16 05:17N 45°26' E 012°18'0 0.0
2019-Jul-16 04:38N 45°26' E 012°18'0 0.0
2019-Jul-16 03:53N 45°26' E 012°18'0 0.0
2019-Jul-16 03:08N 45°26' E 012°18'0 0.0
2019-Jul-16 01:59N 45°26' E 012°18'0 0.0
2019-Jul-16 01:29N 45°26' E 012°18'0 0.0
2019-Jul-15 23:53N 45°26' E 012°18'0 0.0
2019-Jul-15 19:23N 45°26' E 012°18'0 0.0
2019-Jul-15 18:53N 45°26' E 012°18'0 0.0
2019-Jul-15 18:17N 45°26' E 012°18'0 0.0
2019-Jul-15 17:53N 45°26' E 012°18'0 0.0
2019-Jul-15 16:47N 45°26' E 012°18'0 0.0
2019-Jul-15 16:23N 45°26' E 012°18'0 0.0
2019-Jul-15 15:53N 45°26' E 012°18'0 0.0
2019-Jul-15 14:11N 45°26' E 012°18'0 0.0
2019-Jul-15 13:35N 45°26' E 012°18'0 0.0
2019-Jul-15 11:47N 45°26' E 012°18'0 0.0
2019-Jul-15 10:53N 45°26' E 012°18'0 0.0
2019-Jul-15 10:29N 45°26' E 012°18'0 0.0
2019-Jul-15 09:59N 45°26' E 012°18'0 0.0
2019-Jul-15 09:23N 45°26' E 012°18'0 0.0
2019-Jul-15 08:41N 45°26' E 012°18'0 0.0
2019-Jul-15 08:23N 45°26' E 012°18'0 0.0
2019-Jul-15 07:53N 45°26' E 012°18'0 0.0
2019-Jul-15 06:44N 45°26' E 012°18'0 0.0
2019-Jul-15 06:05N 45°26' E 012°18'0 0.0
2019-Jul-15 05:41N 45°26' E 012°18'0 0.0
2019-Jul-15 05:17N 45°26' E 012°18'0 0.0
2019-Jul-15 04:59N 45°26' E 012°18'0 0.0
2019-Jul-15 04:05N 45°26' E 012°18'0 0.1
2019-Jul-15 03:59N 45°26' E 012°18'0 0.0
2019-Jul-15 03:29N 45°26' E 012°18'0 0.0
2019-Jul-15 01:29N 45°26' E 012°18'0 0.0
2019-Jul-15 00:35N 45°26' E 012°18'0 0.1
2019-Jul-15 00:29N 45°26' E 012°18'0 0.0
2019-Jul-14 23:53N 45°26' E 012°18'0 0.0
2019-Jul-14 23:29N 45°26' E 012°18'0 0.0
2019-Jul-14 21:59N 45°26' E 012°18'0 0.0
2019-Jul-14 21:23N 45°26' E 012°18'0 0.0
2019-Jul-14 18:59N 45°26' E 012°18'0 0.0
2019-Jul-14 17:41N 45°26' E 012°18'0 0.0
2019-Jul-14 16:50N 45°26' E 012°18'0 0.0
2019-Jul-14 15:47N 45°26' E 012°18'0 0.0
2019-Jul-14 15:23N 45°26' E 012°18'0 0.0
2019-Jul-14 14:47N 45°26' E 012°18'0 0.0
2019-Jul-14 13:36N 45°26' E 012°18'0 0.1
2019-Jul-14 13:29N 45°26' E 012°18'0 0.9
2019-Jul-14 13:00N 45°26' E 012°19'2 4.8
2019-Jul-14 12:30N 45°25' E 012°22'2 4.6
2019-Jul-14 12:00N 45°25' E 012°26'2 4.8
2019-Jul-14 11:30N 45°25' E 012°29'1 1.0
2019-Jul-14 10:55N 45°26' E 012°29'0 0.0
2019-Jul-14 10:28N 45°26' E 012°29'0 0.1
2019-Jul-14 10:00N 45°26' E 012°29'2 3.8
2019-Jul-14 09:30N 45°25' E 012°27'3 5.8
2019-Jul-14 09:00N 45°26' E 012°23'2 3.9
2019-Jul-14 08:30N 45°26' E 012°20'1 2.0
2019-Jul-14 07:54N 45°26' E 012°18'0 0.0
2019-Jul-14 06:18N 45°26' E 012°18'0 0.0
2019-Jul-14 04:54N 45°26' E 012°18'0 0.0
2019-Jul-14 04:09N 45°26' E 012°18'0 0.0
2019-Jul-14 02:33N 45°26' E 012°18'0 0.0
2019-Jul-14 01:33N 45°26' E 012°18'0 0.0
2019-Jul-13 18:30N 45°26' E 012°18'0 0.0
2019-Jul-13 16:39N 45°26' E 012°18'0 0.0
2019-Jul-13 16:24N 45°26' E 012°18'0 0.0
2019-Jul-13 15:06N 45°26' E 012°18'0 0.0
2019-Jul-13 14:39N 45°26' E 012°18'0 0.0
2019-Jul-13 14:29N 45°26' E 012°18'0 0.0
2019-Jul-13 14:00N 45°26' E 012°18'0 0.0
2019-Jul-13 13:30N 45°26' E 012°18'1 2.5
2019-Jul-13 13:01N 45°26' E 012°20'2 4.7
2019-Jul-13 12:31N 45°26' E 012°23'3 6.2
2019-Jul-13 12:00N 45°25' E 012°27'  
Track history (hours):
 
Tides and Currents Weather Stations Pressure Air Temp Water Temp Dewpoint Dewpoint Depression Visibility Wind Speed Wind Dir Waves Ship Positions

Stad Amsterdam (Netherlands)

Ship's website: http://www.stadamsterdam.com/content/home/index.xml

Last reported at 2019-Jul-23 12:00 UTC. Time now 2019-Jul-23 22:01 UTC.
Position N 39°30' E 018°12'.

Length 76 m; beam 10 m.

Type: Sailing vessel. MMSI: 246494000.

Wind from 330 at 17 knots

Barometer 1014.5 mb
Air temperature 28.4 ° C
Visibility: greater than 10.8 NM
Dewpoint 23.9 ° C
Water temperature 26.7 ° C

Date/timePositionNaut miles runAvg speedWind from/ knotsBaromVisibWave heightAir tempDewpointWater temp
2019-Jul-23 12:00N 39°30' E 018°12'85 7.1 330 / 171014.510.8 28.423.926.7
2019-Jul-23 00:00N 40°54' E 018°30'30 5.0 330 / 171016.5 5.4 25.523.425.6
2019-Jul-22 18:00N 41°18' E 018°06'30 4.9 350 / 131017.627.0 26.224.626.0
2019-Jul-22 12:00N 41°30' E 017°30'58 4.8 320 / 101019.410.8 26.423.427.1
2019-Jul-22 00:00N 42°12' E 016°36'64 6.7 340 / 41019.510.8 30.419.825.9
2019-Jul-21 14:27N 43°07' E 015°53'4 7.7
2019-Jul-21 13:57N 43°10' E 015°49'4 7.7
2019-Jul-21 13:30N 43°12' E 015°46'13 8.6
2019-Jul-21 12:00N 43°18' E 015°30'511.5 230 / 51020.510.8 30.423.328.0
2019-Jul-21 11:31N 43°23' E 015°32'1 7.4
2019-Jul-21 11:21N 43°24' E 015°30'8 7.5
2019-Jul-21 10:15N 43°30' E 015°23'3 7.7
2019-Jul-21 09:53N 43°32' E 015°20'10 7.7
2019-Jul-21 08:36N 43°40' E 015°11'0 1.7
2019-Jul-21 08:23N 43°40' E 015°11'0 0.2
2019-Jul-21 07:53N 43°40' E 015°11'0 0.2
2019-Jul-21 07:30N 43°40' E 015°11'3 5.5
2019-Jul-21 07:00N 43°42' E 015°08'4 7.3
2019-Jul-21 06:30N 43°44' E 015°04'4 7.3
2019-Jul-21 06:00N 43°47' E 015°01'4 7.2
2019-Jul-21 05:30N 43°49' E 014°57'4 7.3
2019-Jul-21 05:00N 43°52' E 014°53'4 7.2
2019-Jul-21 04:30N 43°54' E 014°49'4 7.3
2019-Jul-21 04:00N 43°57' E 014°46'4 7.5
2019-Jul-21 03:29N 43°59' E 014°42'4 7.5
2019-Jul-21 03:00N 44°01' E 014°38'4 7.4
2019-Jul-21 02:30N 44°04' E 014°34'4 7.2
2019-Jul-21 02:00N 44°07' E 014°31'4 7.4
2019-Jul-21 01:30N 44°10' E 014°28'4 7.4
2019-Jul-21 01:00N 44°12' E 014°24'4 7.5
2019-Jul-21 00:30N 44°15' E 014°21'4 7.5
2019-Jul-21 00:00N 44°18' E 014°17'4 7.3
2019-Jul-20 23:30N 44°21' E 014°14'4 7.5
2019-Jul-20 23:00N 44°23' E 014°10'4 7.6
2019-Jul-20 22:30N 44°26' E 014°06'4 7.4
2019-Jul-20 22:00N 44°28' E 014°03'4 7.2
2019-Jul-20 21:30N 44°31' E 013°59'4 7.5
2019-Jul-20 21:00N 44°34' E 013°56'4 7.5
2019-Jul-20 20:30N 44°37' E 013°52'4 7.7
2019-Jul-20 20:00N 44°40' E 013°49'4 7.6
2019-Jul-20 19:30N 44°43' E 013°45'3 6.9
2019-Jul-20 19:00N 44°45' E 013°42'3 6.6
2019-Jul-20 18:30N 44°48' E 013°39'3 6.6
2019-Jul-20 18:00N 44°50' E 013°36'3 6.7
2019-Jul-20 17:30N 44°53' E 013°33'3 6.8
2019-Jul-20 17:00N 44°55' E 013°29'3 6.9
2019-Jul-20 16:30N 44°57' E 013°26'3 7.0
2019-Jul-20 16:00N 44°60' E 013°22'4 7.2
2019-Jul-20 15:30N 45°01' E 013°17'3 6.9
2019-Jul-20 15:00N 45°02' E 013°13'4 7.0
2019-Jul-20 14:30N 45°04' E 013°09'3 6.1
2019-Jul-20 14:00N 45°06' E 013°05'3 6.4
2019-Jul-20 13:30N 45°07' E 013°01'3 6.3
2019-Jul-20 13:00N 45°09' E 012°57'3 6.1
2019-Jul-20 12:30N 45°11' E 012°54'3 6.2
2019-Jul-20 12:00N 45°13' E 012°51'3 6.4
2019-Jul-20 11:30N 45°15' E 012°48'3 6.4
2019-Jul-20 11:00N 45°17' E 012°44'3 6.0
2019-Jul-20 10:30N 45°19' E 012°41'3 6.0
2019-Jul-20 10:00N 45°21' E 012°37'3 6.1
2019-Jul-20 09:30N 45°23' E 012°34'3 5.8
2019-Jul-20 09:00N 45°24' E 012°30'2 2.8
2019-Jul-20 08:26N 45°25' E 012°28'0 0.0
2019-Jul-20 07:56N 45°25' E 012°28'0 0.0
2019-Jul-20 07:26N 45°25' E 012°29'0 0.0
2019-Jul-20 06:59N 45°25' E 012°28'0 0.0
2019-Jul-20 06:20N 45°25' E 012°29'0 0.0
2019-Jul-20 05:56N 45°25' E 012°28'0 0.0
2019-Jul-20 05:29N 45°25' E 012°28'0 0.0
2019-Jul-20 04:59N 45°25' E 012°28'0 0.0
2019-Jul-20 04:29N 45°25' E 012°28'0 0.0
2019-Jul-20 03:53N 45°25' E 012°29'0 0.0
2019-Jul-20 03:29N 45°25' E 012°28'0 0.0
2019-Jul-20 02:59N 45°25' E 012°28'0 0.0
2019-Jul-20 02:29N 45°25' E 012°28'0 0.0
2019-Jul-20 01:59N 45°25' E 012°28'0 0.0
2019-Jul-20 01:29N 45°25' E 012°28'0 0.0
2019-Jul-20 00:59N 45°25' E 012°28'0 0.0
2019-Jul-20 00:29N 45°25' E 012°29'0 0.0
2019-Jul-19 23:59N 45°25' E 012°29'0 0.0
2019-Jul-19 23:29N 45°25' E 012°29'0 0.0
2019-Jul-19 22:59N 45°25' E 012°29'0 0.0
2019-Jul-19 22:20N 45°25' E 012°29'1 1.9
2019-Jul-19 22:00N 45°25' E 012°28'3 6.7
2019-Jul-19 21:31N 45°26' E 012°23'3 5.1
2019-Jul-19 21:00N 45°26' E 012°20'1 1.9
2019-Jul-19 20:29N 45°26' E 012°18'0 0.0
2019-Jul-19 19:38N 45°26' E 012°18'0 0.0
2019-Jul-19 19:17N 45°26' E 012°18'0 0.0
2019-Jul-19 18:59N 45°26' E 012°18'0 0.0
2019-Jul-19 18:26N 45°26' E 012°18'0 0.0
2019-Jul-19 17:59N 45°26' E 012°18'0 0.0
2019-Jul-19 17:26N 45°26' E 012°18'0 0.0
2019-Jul-19 16:56N 45°26' E 012°18'0 0.0
2019-Jul-19 16:29N 45°26' E 012°18'0 0.0
2019-Jul-19 15:59N 45°26' E 012°18'0 0.0
2019-Jul-19 14:59N 45°26' E 012°18'0 0.0
2019-Jul-19 13:38N 45°26' E 012°18'0 0.0
2019-Jul-19 13:26N 45°26' E 012°18'0 0.0
2019-Jul-19 12:53N 45°26' E 012°18'0 0.0
2019-Jul-19 12:26N 45°26' E 012°18'0 0.0
2019-Jul-19 11:50N 45°26' E 012°18'0 0.0
2019-Jul-19 11:20N 45°26' E 012°18'0 0.0
2019-Jul-19 10:38N 45°26' E 012°18'0 0.0
2019-Jul-19 10:26N 45°26' E 012°18'0 0.0
2019-Jul-19 09:56N 45°26' E 012°18'0 0.0
2019-Jul-19 09:26N 45°26' E 012°18'0 0.0
2019-Jul-19 08:56N 45°26' E 012°18'0 0.0
2019-Jul-19 08:26N 45°26' E 012°18'0 0.0
2019-Jul-19 07:56N 45°26' E 012°18'0 0.0
2019-Jul-19 07:14N 45°26' E 012°18'0 0.0
2019-Jul-19 06:56N 45°26' E 012°18'0 0.0
2019-Jul-19 06:08N 45°26' E 012°18'0 0.0
2019-Jul-19 05:56N 45°26' E 012°18'0 0.0
2019-Jul-19 05:26N 45°26' E 012°18'0 0.0
2019-Jul-19 04:29N 45°26' E 012°18'0 0.0
2019-Jul-19 03:38N 45°26' E 012°18'0 0.0
2019-Jul-19 03:20N 45°26' E 012°18'0 0.0
2019-Jul-19 02:47N 45°26' E 012°18'0 0.0
2019-Jul-19 02:05N 45°26' E 012°18'0 0.0
2019-Jul-19 01:29N 45°26' E 012°18'0 0.0
2019-Jul-19 00:53N 45°26' E 012°18'0 0.0
2019-Jul-18 23:53N 45°26' E 012°18'0 0.0
2019-Jul-18 23:29N 45°26' E 012°18'0 0.0
2019-Jul-18 22:59N 45°26' E 012°18'0 0.0
2019-Jul-18 22:23N 45°26' E 012°18'0 0.0
2019-Jul-18 21:38N 45°26' E 012°18'0 0.0
2019-Jul-18 21:29N 45°26' E 012°18'0 0.0
2019-Jul-18 20:47N 45°26' E 012°18'0 0.0
2019-Jul-18 18:26N 45°26' E 012°18'0 0.0
2019-Jul-18 15:56N 45°26' E 012°18'0 0.0
2019-Jul-18 15:23N 45°26' E 012°18'0 0.0
2019-Jul-18 14:50N 45°26' E 012°18'0 0.0
2019-Jul-18 14:29N 45°26' E 012°18'0 0.0
2019-Jul-18 13:53N 45°26' E 012°18'0 0.0
2019-Jul-18 13:23N 45°26' E 012°18'0 0.0
2019-Jul-18 12:44N 45°26' E 012°18'0 0.0
2019-Jul-18 12:26N 45°26' E 012°18'0 0.0
2019-Jul-18 11:56N 45°26' E 012°18'0 0.0
2019-Jul-18 11:26N 45°26' E 012°18'0 0.0
2019-Jul-18 10:56N 45°26' E 012°18'0 0.0
2019-Jul-18 06:17N 45°26' E 012°18'0 0.0
2019-Jul-18 05:26N 45°26' E 012°18'0 0.0
2019-Jul-18 04:26N 45°26' E 012°18'0 0.0
2019-Jul-18 03:56N 45°26' E 012°18'0 0.0
2019-Jul-18 03:08N 45°26' E 012°18'0 0.0
2019-Jul-18 00:14N 45°26' E 012°18'0 0.0
2019-Jul-17 22:56N 45°26' E 012°18'0 0.0
2019-Jul-17 21:59N 45°26' E 012°18'0 0.0
2019-Jul-17 21:29N 45°26' E 012°18'0 0.0
2019-Jul-17 20:35N 45°26' E 012°18'0 0.0
2019-Jul-17 19:35N 45°26' E 012°18'0 0.0
2019-Jul-17 19:23N 45°26' E 012°18'0 0.0
2019-Jul-17 18:59N 45°26' E 012°18'0 0.0
2019-Jul-17 18:11N 45°26' E 012°18'0 0.0
2019-Jul-17 17:56N 45°26' E 012°18'0 0.0
2019-Jul-17 17:29N 45°26' E 012°18'0 0.0
2019-Jul-17 16:47N 45°26' E 012°18'0 0.0
2019-Jul-17 16:29N 45°26' E 012°18'0 0.0
2019-Jul-17 15:53N 45°26' E 012°18'0 0.0
2019-Jul-17 15:29N 45°26' E 012°18'0 0.0
2019-Jul-17 14:53N 45°26' E 012°18'0 0.0
2019-Jul-17 13:59N 45°26' E 012°18'0 0.0
2019-Jul-17 13:16N 45°26' E 012°18'1 2.4
2019-Jul-17 13:00N 45°26' E 012°19'2 4.4
2019-Jul-17 12:30N 45°25' E 012°22'3 6.1
2019-Jul-17 12:00N 45°25' E 012°27'2 4.6
2019-Jul-17 11:30N 45°25' E 012°30'1 1.7
2019-Jul-17 10:47N 45°26' E 012°29'0 0.0
2019-Jul-17 10:23N 45°26' E 012°29'0 0.2
2019-Jul-17 10:00N 45°26' E 012°29'3 5.3
2019-Jul-17 09:30N 45°26' E 012°25'2 4.5
2019-Jul-17 09:00N 45°25' E 012°22'2 4.4
2019-Jul-17 08:30N 45°26' E 012°19'0 0.4
2019-Jul-17 07:16N 45°26' E 012°18'0 0.0
2019-Jul-17 06:28N 45°26' E 012°18'0 0.0
2019-Jul-17 05:46N 45°26' E 012°18'0 0.0
2019-Jul-17 05:10N 45°26' E 012°18'0 0.0
2019-Jul-17 04:58N 45°26' E 012°18'0 0.0
2019-Jul-17 04:28N 45°26' E 012°18'0 0.0
2019-Jul-17 03:55N 45°26' E 012°18'0 0.0
2019-Jul-17 03:28N 45°26' E 012°18'0 0.0
2019-Jul-17 02:58N 45°26' E 012°18'0 0.0
2019-Jul-17 01:31N 45°26' E 012°18'0 0.1
2019-Jul-17 01:25N 45°26' E 012°18'0 0.0
2019-Jul-17 00:58N 45°26' E 012°18'0 0.0
2019-Jul-17 00:25N 45°26' E 012°18'0 0.0
2019-Jul-16 23:28N 45°26' E 012°18'0 0.0
2019-Jul-16 22:58N 45°26' E 012°18'0 0.0
2019-Jul-16 22:22N 45°26' E 012°18'0 0.0
2019-Jul-16 21:07N 45°26' E 012°18'0 0.0
2019-Jul-16 20:58N 45°26' E 012°18'0 0.0
2019-Jul-16 20:28N 45°26' E 012°18'0 0.0
2019-Jul-16 18:25N 45°26' E 012°18'0 0.0
2019-Jul-16 17:52N 45°26' E 012°18'0 0.0
2019-Jul-16 17:22N 45°26' E 012°18'0 0.0
2019-Jul-16 16:58N 45°26' E 012°18'0 0.0
2019-Jul-16 16:28N 45°26' E 012°18'0 0.0
2019-Jul-16 15:46N 45°26' E 012°18'0 0.0
2019-Jul-16 15:28N 45°26' E 012°18'0 0.0
2019-Jul-16 13:34N 45°26' E 012°18'0 0.0
2019-Jul-16 13:29N 45°26' E 012°18'1 2.6
2019-Jul-16 13:00N 45°26' E 012°20'2 3.9
2019-Jul-16 12:30N 45°26' E 012°23'3 5.5
2019-Jul-16 12:00N 45°25' E 012°27'2 4.7
2019-Jul-16 11:30N 45°25' E 012°30'1 2.6
2019-Jul-16 10:59N 45°26' E 012°29'0 0.0
2019-Jul-16 10:29N 45°26' E 012°29'0 0.0
2019-Jul-16 10:00N 45°26' E 012°29'2 4.1
2019-Jul-16 09:30N 45°25' E 012°26'2 4.6
2019-Jul-16 09:00N 45°25' E 012°22'2 4.3
2019-Jul-16 08:30N 45°26' E 012°19'1 1.1
2019-Jul-16 07:47N 45°26' E 012°18'0 0.0
2019-Jul-16 07:05N 45°26' E 012°18'0 0.0
2019-Jul-16 06:17N 45°26' E 012°18'0 0.0
2019-Jul-16 05:38N 45°26' E 012°18'0 0.0
2019-Jul-16 05:17N 45°26' E 012°18'0 0.0
2019-Jul-16 04:38N 45°26' E 012°18'0 0.0
2019-Jul-16 03:53N 45°26' E 012°18'0 0.0
2019-Jul-16 03:08N 45°26' E 012°18'0 0.0
2019-Jul-16 01:59N 45°26' E 012°18'0 0.0
2019-Jul-16 01:29N 45°26' E 012°18'0 0.0
2019-Jul-15 23:53N 45°26' E 012°18'0 0.0
2019-Jul-15 19:23N 45°26' E 012°18'0 0.0
2019-Jul-15 18:53N 45°26' E 012°18'0 0.0
2019-Jul-15 18:17N 45°26' E 012°18'0 0.0
2019-Jul-15 17:53N 45°26' E 012°18'0 0.0
2019-Jul-15 16:47N 45°26' E 012°18'0 0.0
2019-Jul-15 16:23N 45°26' E 012°18'0 0.0
2019-Jul-15 15:53N 45°26' E 012°18'0 0.0
2019-Jul-15 14:11N 45°26' E 012°18'0 0.0
2019-Jul-15 13:35N 45°26' E 012°18'0 0.0
2019-Jul-15 11:47N 45°26' E 012°18'0 0.0
2019-Jul-15 10:53N 45°26' E 012°18'0 0.0
2019-Jul-15 10:29N 45°26' E 012°18'0 0.0
2019-Jul-15 09:59N 45°26' E 012°18'0 0.0
2019-Jul-15 09:23N 45°26' E 012°18'0 0.0
2019-Jul-15 08:41N 45°26' E 012°18'0 0.0
2019-Jul-15 08:23N 45°26' E 012°18'0 0.0
2019-Jul-15 07:53N 45°26' E 012°18'0 0.0
2019-Jul-15 06:44N 45°26' E 012°18'0 0.0
2019-Jul-15 06:05N 45°26' E 012°18'0 0.0
2019-Jul-15 05:41N 45°26' E 012°18'0 0.0
2019-Jul-15 05:17N 45°26' E 012°18'0 0.0
2019-Jul-15 04:59N 45°26' E 012°18'0 0.0
2019-Jul-15 04:05N 45°26' E 012°18'0 0.1
2019-Jul-15 03:59N 45°26' E 012°18'0 0.0
2019-Jul-15 03:29N 45°26' E 012°18'0 0.0
2019-Jul-15 01:29N 45°26' E 012°18'0 0.0
2019-Jul-15 00:35N 45°26' E 012°18'0 0.1
2019-Jul-15 00:29N 45°26' E 012°18'0 0.0
2019-Jul-14 23:53N 45°26' E 012°18'0 0.0
2019-Jul-14 23:29N 45°26' E 012°18'0 0.0
2019-Jul-14 21:59N 45°26' E 012°18'0 0.0
2019-Jul-14 21:23N 45°26' E 012°18'0 0.0
2019-Jul-14 18:59N 45°26' E 012°18'0 0.0
2019-Jul-14 17:41N 45°26' E 012°18'0 0.0
2019-Jul-14 16:50N 45°26' E 012°18'0 0.0
2019-Jul-14 15:47N 45°26' E 012°18'0 0.0
2019-Jul-14 15:23N 45°26' E 012°18'0 0.0
2019-Jul-14 14:47N 45°26' E 012°18'0 0.0
2019-Jul-14 13:36N 45°26' E 012°18'0 0.1
2019-Jul-14 13:29N 45°26' E 012°18'0 0.9
2019-Jul-14 13:00N 45°26' E 012°19'2 4.8
2019-Jul-14 12:30N 45°25' E 012°22'2 4.6
2019-Jul-14 12:00N 45°25' E 012°26'2 4.8
2019-Jul-14 11:30N 45°25' E 012°29'1 1.0
2019-Jul-14 10:55N 45°26' E 012°29'0 0.0
2019-Jul-14 10:28N 45°26' E 012°29'0 0.1
2019-Jul-14 10:00N 45°26' E 012°29'2 3.8
2019-Jul-14 09:30N 45°25' E 012°27'3 5.8
2019-Jul-14 09:00N 45°26' E 012°23'2 3.9
2019-Jul-14 08:30N 45°26' E 012°20'1 2.0
2019-Jul-14 07:54N 45°26' E 012°18'0 0.0
2019-Jul-14 06:18N 45°26' E 012°18'0 0.0
2019-Jul-14 04:54N 45°26' E 012°18'0 0.0
2019-Jul-14 04:09N 45°26' E 012°18'0 0.0
2019-Jul-14 02:33N 45°26' E 012°18'0 0.0
2019-Jul-14 01:33N 45°26' E 012°18'0 0.0
2019-Jul-13 18:30N 45°26' E 012°18'0 0.0
2019-Jul-13 16:39N 45°26' E 012°18'0 0.0
2019-Jul-13 16:24N 45°26' E 012°18'0 0.0
2019-Jul-13 15:06N 45°26' E 012°18'0 0.0
2019-Jul-13 14:39N 45°26' E 012°18'0 0.0
2019-Jul-13 14:29N 45°26' E 012°18'0 0.0
2019-Jul-13 14:00N 45°26' E 012°18'0 0.0
2019-Jul-13 13:30N 45°26' E 012°18'1 2.5
2019-Jul-13 13:01N 45°26' E 012°20'2 4.7
2019-Jul-13 12:31N 45°26' E 012°23'3 6.2
2019-Jul-13 12:00N 45°25' E 012°27'  

Dump ship's entire track history